メインページ
METAR-TAF:

METAR-TAF

空港 :

Mason Jewett Field

Mason, ミシガン州, アメリカ合衆国

緯度: 42-33-57N, 経度: 084-25-24W, 海抜: 280m

現時点の気象観測

当レポートは24分前の06:15(UTC)に作成
南東の風 5kt
気温 6°C
湿度 70%
気圧 1017 hPa
視程: 16.1km
晴天

METAR: KTEW 040615Z AUTO 13005KT 10SM CLR 06/01 A3003 RMK AO2 T00570005

時間: 02:39 (06:39 UTC)


TAF: 見つかりません

4,000以上の空港の気象観測と天気予報(METAR報とTAF報)

利用可能な観測所は地図上に黄色い丸と赤い丸で示す。

丸の上にカーソルを重ねると観測所名を参照できる。

次にクリックすると気象観測と天気予報を参照できる。

マップの切り替え:黒色「×」印の緑ボタンをクリックして拡大、「-」印の緑ボタンをクリックして縮小、緑色の三角印をクリックして隣りの地図に切り替え


METAR-TAF: